Time;durP1;ratioP1;P1;durP2;ratioP2;P2;SDS_P1;SDS_P2;PMS_P1;PMS_P2;Temp;Humidity;BMP_temperature;BMP_pressure;BME280_temperature;BME280_humidity;BME280_pressure;Samples;Min_cycle;Max_cycle;Signal;HPM_P1;HPM_P2
2024/04/19 00:01:33;;;;;;;7.53;3.78;;;;;;;;;;5428887;26;19996;-68
2024/04/19 00:03:59;;;;;;;4.97;3.78;;;;;;;;;;5415813;26;19999;-69
2024/04/19 00:06:25;;;;;;;6.78;3.92;;;;;;;;;;5415819;26;20003;-69
2024/04/19 00:08:51;;;;;;;5.07;3.83;;;;;;;;;;5415274;26;20006;-68
2024/04/19 00:11:17;;;;;;;6.47;4.22;;;179.60;2252.80;;;;;;5415310;26;19999;-65
2024/04/19 00:13:43;;;;;;;6.60;3.92;;;179.30;2252.80;;;;;;5440086;26;20022;-68
2024/04/19 00:16:08;;;;;;;6.15;3.97;;;179.30;2252.80;;;;;;5451556;26;20006;-68
2024/04/19 00:18:34;;;;;;;5.53;3.85;;;179.30;2252.80;;;;;;5451869;26;20010;-69
2024/04/19 00:21:00;;;;;;;7.03;4.60;;;179.40;2252.80;;;;;;5451923;26;19991;-69
2024/04/19 00:23:26;;;;;;;5.82;3.97;;;179.20;2252.80;;;;;;5451836;26;20017;-68
2024/04/19 00:25:51;;;;;;;6.15;4.00;;;179.20;2252.80;;;;;;5451681;26;20016;-69
2024/04/19 00:28:18;;;;;;;7.20;4.32;;;179.20;2252.80;;;;;;5451576;26;20017;-68
2024/04/19 00:30:44;;;;;;;5.85;4.03;;;179.40;2252.80;;;;;;5450829;26;20002;-68
2024/04/19 00:33:10;;;;;;;6.95;4.57;;;179.20;2252.80;;;;;;5451430;26;20434;-68
2024/04/19 00:35:36;;;;;;;7.00;4.50;;;154.50;2252.80;;;;;;5451699;26;20075;-68
2024/04/19 00:38:02;;;;;;;6.32;4.60;;;154.40;2252.80;;;;;;5420045;26;20346;-68
2024/04/19 00:40:27;;;;;;;9.25;4.97;;;154.40;2252.80;;;;;;5451514;26;20003;-69
2024/04/19 00:42:56;;;;;;;6.07;4.30;;;179.30;2252.80;;;;;;5451968;26;20023;-68
2024/04/19 00:45:35;;;;;;;6.40;4.55;;;154.40;2252.80;;;;;;5450906;26;20003;-68
2024/04/19 00:48:16;;;;;;;6.93;4.40;;;154.50;2252.80;;;;;;5451008;26;20079;-69
2024/04/19 00:50:44;;;;;;;6.80;4.65;;;154.40;2252.80;;;;;;5451214;26;20408;-68
2024/04/19 00:53:11;;;;;;;8.80;4.85;;;154.50;2252.80;;;;;;5451330;26;20071;-69
2024/04/19 00:55:38;;;;;;;6.07;4.30;;;179.20;2252.80;;;;;;5451431;26;20007;-69
2024/04/19 00:58:04;;;;;;;7.47;4.80;;;154.40;2252.80;;;;;;5451187;26;20477;-68
2024/04/19 01:00:32;;;;;;;7.95;4.85;;;154.40;2252.80;;;;;;5437404;26;20011;-69
2024/04/19 01:02:57;;;;;;;5.88;4.60;;;154.40;2252.80;;;;;;5415311;26;20311;-68
2024/04/19 01:05:24;;;;;;;6.82;4.45;;;154.30;2252.80;;;;;;5414984;26;19995;-68
2024/04/19 01:07:50;;;;;;;6.10;4.88;;;154.30;2252.80;;;;;;5415239;26;20007;-69
2024/04/19 01:10:17;;;;;;;8.93;4.53;;;154.30;2252.80;;;;;;5415182;26;20072;-69
2024/04/19 01:12:43;;;;;;;6.25;4.80;;;154.30;2252.80;;;;;;5423933;26;20462;-69
2024/04/19 01:15:16;;;;;;;7.13;4.93;;;154.30;2252.80;;;;;;5450373;26;19999;-69
2024/04/19 01:17:41;;;;;;;7.38;5.00;;;154.30;2252.80;;;;;;5450918;26;19998;-69
2024/04/19 01:20:07;;;;;;;6.97;5.20;;;154.30;2252.80;;;;;;5444836;26;20003;-69
2024/04/19 01:22:33;;;;;;;8.27;5.07;;;154.30;2252.80;;;;;;5414984;26;20000;-69
2024/04/19 01:25:01;;;;;;;7.65;4.97;;;154.30;2252.80;;;;;;5414966;26;19992;-69
2024/04/19 01:27:26;;;;;;;6.95;4.95;;;154.40;2252.80;;;;;;5414852;26;20000;-68
2024/04/19 01:29:52;;;;;;;7.45;5.10;;;154.20;2252.80;;;;;;5437728;26;20005;-68
2024/04/19 01:32:17;;;;;;;7.72;5.45;;;154.20;2252.80;;;;;;5450316;26;20010;-68
2024/04/19 01:34:43;;;;;;;6.80;4.97;;;154.20;2252.80;;;;;;5450706;26;20006;-68
2024/04/19 01:37:09;;;;;;;9.68;5.43;;;154.20;2252.80;;;;;;5439965;26;20009;-68
2024/04/19 01:39:34;;;;;;;8.00;5.40;;;154.10;2252.80;;;;;;5450958;26;20002;-68
2024/04/19 01:42:00;;;;;;;7.75;4.97;;;154.20;2252.80;;;;;;5450663;26;20006;-69
2024/04/19 01:44:26;;;;;;;8.65;5.15;;;154.20;2252.80;;;;;;5450764;26;20005;-68
2024/04/19 01:46:51;;;;;;;7.47;4.75;;;154.10;2252.80;;;;;;5418710;26;19999;-69
2024/04/19 01:49:17;;;;;;;7.35;5.30;;;154.10;2252.80;;;;;;5450263;26;20450;-68
2024/04/19 01:51:43;;;;;;;8.45;5.20;;;154.30;2252.80;;;;;;5450709;26;20325;-68
2024/04/19 01:54:08;;;;;;;6.45;4.85;;;154.10;2252.80;;;;;;5432685;26;20080;-68
2024/04/19 01:56:34;;;;;;;12.82;5.72;;;154.10;2252.80;;;;;;5429185;26;19995;-68
2024/04/19 01:59:00;;;;;;;7.75;5.03;;;154.10;2252.80;;;;;;5444911;26;20002;-68
2024/04/19 02:01:25;;;;;;;6.93;5.00;;;154.10;2252.80;;;;;;5413968;26;20000;-68
2024/04/19 02:03:51;;;;;;;7.50;4.70;;;154.10;2252.80;;;;;;5414105;26;20000;-68
2024/04/19 02:06:17;;;;;;;6.75;5.00;;;154.20;2252.80;;;;;;5414385;26;20002;-69
2024/04/19 02:08:42;;;;;;;7.13;5.18;;;154.10;2252.80;;;;;;5414071;26;19998;-68
2024/04/19 02:11:08;;;;;;;8.90;5.25;;;154.00;2252.80;;;;;;5418800;26;20450;-68
2024/04/19 02:13:34;;;;;;;10.50;5.47;;;154.10;2252.80;;;;;;5449552;26;20342;-68
2024/04/19 02:16:00;;;;;;;13.43;5.82;;;154.00;2252.80;;;;;;5449571;26;20001;-68
2024/04/19 02:18:26;;;;;;;8.30;4.93;;;154.00;2252.80;;;;;;5449999;26;20002;-68
2024/04/19 02:20:52;;;;;;;8.07;5.10;;;153.90;2252.80;;;;;;5450114;26;20088;-68
2024/04/19 02:23:35;;;;;;;7.35;5.00;;;153.90;2252.80;;;;;;5449649;26;20006;-68
2024/04/19 02:26:04;;;;;;;6.68;5.25;;;153.80;2252.80;;;;;;5449993;26;19999;-68
2024/04/19 02:31:15;;;;;;;8.85;5.38;;;153.80;2252.80;;;;;;5449581;26;20468;-68
2024/04/19 02:33:41;;;;;;;6.28;4.80;;;153.70;2252.80;;;;;;5451797;26;19999;-68
2024/04/19 02:36:09;;;;;;;7.60;5.10;;;153.80;2252.80;;;;;;5453314;26;20007;-68
2024/04/19 02:38:37;;;;;;;7.88;5.38;;;153.70;2252.80;;;;;;5438451;26;20353;-68
2024/04/19 02:41:03;;;;;;;7.72;5.78;;;153.70;2252.80;;;;;;5453343;26;20002;-68
2024/04/19 02:43:28;;;;;;;8.70;5.65;;;153.80;2252.80;;;;;;5453035;26;19998;-68
2024/04/19 02:45:54;;;;;;;9.75;6.07;;;153.80;2252.80;;;;;;5452837;26;20006;-68
2024/04/19 02:48:20;;;;;;;9.68;6.43;;;153.60;2252.80;;;;;;5452603;26;20003;-68
2024/04/19 02:50:49;;;;;;;10.00;6.43;;;153.60;2252.80;;;;;;5453104;26;20387;-66
2024/04/19 02:53:18;;;;;;;7.75;6.00;;;128.90;2252.80;;;;;;5453071;26;19995;-69
2024/04/19 02:55:43;;;;;;;12.35;6.32;;;128.90;2252.80;;;;;;5452765;26;20002;-68
2024/04/19 02:58:09;;;;;;;9.82;6.50;;;128.80;2252.80;;;;;;5453107;26;19999;-68
2024/04/19 03:00:35;;;;;;;8.35;6.15;;;128.70;2252.80;;;;;;5452949;26;20442;-68
2024/04/19 03:03:00;;;;;;;9.35;6.50;;;128.60;2252.80;;;;;;5452303;26;19991;-68
2024/04/19 03:05:26;;;;;;;10.25;7.00;;;128.70;2252.80;;;;;;5452636;26;20011;-68
2024/04/19 03:07:52;;;;;;;9.85;6.70;;;128.50;2252.80;;;;;;5461476;26;20325;-68
2024/04/19 03:10:18;;;;;;;10.80;6.65;;;128.50;2252.80;;;;;;5489217;26;19998;-68
2024/04/19 03:12:43;;;;;;;9.77;6.57;;;128.50;2252.80;;;;;;5479049;26;19999;-68
2024/04/19 03:15:09;;;;;;;10.15;6.80;;;128.40;2252.80;;;;;;5423571;26;20000;-68
2024/04/19 03:17:35;;;;;;;10.57;7.15;;;128.40;2252.80;;;;;;5418515;26;20011;-68
2024/04/19 03:20:00;;;;;;;12.07;7.00;;;128.40;2252.80;;;;;;5452001;26;19998;-68
2024/04/19 03:22:26;;;;;;;10.88;7.60;;;128.40;2252.80;;;;;;5452797;26;19999;-68
2024/04/19 03:24:52;;;;;;;12.93;6.80;;;128.30;2252.80;;;;;;5452541;26;20426;-68
2024/04/19 03:27:17;;;;;;;11.25;6.57;;;128.30;2252.80;;;;;;5452915;26;20404;-68
2024/04/19 03:29:49;;;;;;;9.48;6.57;;;128.30;2252.80;;;;;;5450950;26;20013;-68
2024/04/19 03:32:14;;;;;;;11.05;6.80;;;128.30;2252.80;;;;;;5451322;26;20313;-68
2024/04/19 03:34:42;;;;;;;9.10;6.20;;;128.30;2252.80;;;;;;5452344;26;19999;-68
2024/04/19 03:37:08;;;;;;;7.75;5.45;;;128.40;2252.80;;;;;;5451462;26;19999;-68
2024/04/19 03:39:34;;;;;;;9.82;6.20;;;128.40;2252.80;;;;;;5452367;26;20337;-67
2024/04/19 03:42:00;;;;;;;8.77;5.90;;;128.40;2252.80;;;;;;5452578;26;20003;-68
2024/04/19 03:47:09;;;;;;;9.57;6.97;;;128.50;2252.80;;;;;;5447827;26;20002;-66
2024/04/19 03:49:35;;;;;;;13.32;7.60;;;128.30;2252.80;;;;;;5416233;26;19995;-68
2024/04/19 03:52:01;;;;;;;11.75;7.40;;;;;;;;;;5416511;26;20003;-68
2024/04/19 03:54:27;;;;;;;11.70;7.18;;;;;;;;;;5416403;26;20153;-68
2024/04/19 03:56:53;;;;;;;12.02;7.80;;;;;;;;;;5416033;26;20474;-68
2024/04/19 03:59:19;;;;;;;10.73;7.00;;;;;;;;;;5443178;26;20002;-68
2024/04/19 04:01:48;;;;;;;13.15;7.85;;;;;;;;;;5448544;26;20144;-68
2024/04/19 04:04:14;;;;;;;10.75;7.43;;;;;;;;;;5420170;26;19994;-68
2024/04/19 04:06:41;;;;;;;10.45;7.65;;;;;;;;;;5452209;26;19995;-68
2024/04/19 04:09:06;;;;;;;11.38;7.60;;;128.40;2252.80;;;;;;5451836;26;20027;-68
2024/04/19 04:11:32;;;;;;;11.30;8.00;;;128.00;2252.80;;;;;;5439772;26;20003;-68
2024/04/19 04:13:58;;;;;;;11.95;7.55;;;128.00;2252.80;;;;;;5415917;26;20014;-67
2024/04/19 04:16:24;;;;;;;11.95;7.97;;;103.30;2227.20;;;;;;5416640;26;20311;-68
2024/04/19 04:18:49;;;;;;;12.73;8.05;;;103.30;2073.60;;;;;;5415762;26;20092;-68
2024/04/19 04:21:15;;;;;;;11.82;8.45;;;128.10;2252.80;;;;;;5422721;26;20451;-68
2024/04/19 04:23:40;;;;;;;11.32;7.82;;;128.00;2252.80;;;;;;5451673;26;20071;-68
2024/04/19 04:26:06;;;;;;;11.02;7.30;;;128.00;2252.80;;;;;;5452034;26;20437;-68
2024/04/19 04:28:32;;;;;;;10.80;7.32;;;128.10;2252.80;;;;;;5451207;26;20330;-68
2024/04/19 04:30:57;;;;;;;10.82;7.65;;;128.10;2252.80;;;;;;5446034;26;20013;-68
2024/04/19 04:33:23;;;;;;;11.35;7.90;;;128.20;2252.80;;;;;;5415365;26;19999;-68
2024/04/19 04:35:49;;;;;;;11.05;8.32;;;128.20;2252.80;;;;;;5415739;26;20080;-68
2024/04/19 04:38:15;;;;;;;12.15;7.53;;;128.30;2252.80;;;;;;5434129;26;20010;-68
2024/04/19 04:40:40;;;;;;;12.25;7.70;;;128.30;2252.80;;;;;;5451620;26;19999;-68
2024/04/19 04:43:06;;;;;;;12.80;8.23;;;128.30;2252.80;;;;;;5417433;26;19999;-68
2024/04/19 04:45:32;;;;;;;11.50;7.10;;;128.20;2252.80;;;;;;5423270;26;20075;-68
2024/04/19 04:47:57;;;;;;;11.30;7.32;;;128.20;2252.80;;;;;;5432561;26;19999;-68
2024/04/19 04:50:23;;;;;;;13.57;7.90;;;128.30;2252.80;;;;;;5487091;26;20004;-68
2024/04/19 04:52:50;;;;;;;27.88;14.30;;;128.30;2252.80;;;;;;5438281;26;20010;-68
2024/04/19 04:55:16;;;;;;;25.52;15.45;;;128.30;2252.80;;;;;;5414689;26;19999;-68
2024/04/19 04:57:42;;;;;;;14.30;9.55;;;128.30;2252.80;;;;;;5415655;26;20015;-65
2024/04/19 05:00:08;;;;;;;13.88;9.48;;;128.40;2252.80;;;;;;5415197;26;20014;-66
2024/04/19 05:02:35;;;;;;;13.30;8.63;;;128.50;2252.80;;;;;;5455561;26;20009;-68
2024/04/19 05:05:00;;;;;;;11.23;7.40;;;128.50;2252.80;;;;;;5486072;26;19998;-68
2024/04/19 05:07:28;;;;;;;10.13;7.43;;;;;;;;;;5426934;26;20013;-69
2024/04/19 05:09:55;;;;;;;9.73;6.68;;;;;;;;;;5441828;26;20013;-68
2024/04/19 05:12:21;;;;;;;9.80;6.22;;;153.80;2252.80;;;;;;5414879;26;19995;-68
2024/04/19 05:14:47;;;;;;;11.02;6.18;;;153.60;2252.80;;;;;;5422242;26;20080;-68
2024/04/19 05:17:12;;;;;;;8.88;6.00;;;153.60;2252.80;;;;;;5466737;26;20442;-68
2024/04/19 05:19:38;;;;;;;9.98;5.68;;;153.70;2252.80;;;;;;5425154;26;20003;-69
2024/04/19 05:22:04;;;;;;;9.45;6.22;;;153.70;2252.80;;;;;;5415776;26;20002;-69
2024/04/19 05:24:29;;;;;;;9.20;5.47;;;153.80;2252.80;;;;;;5438956;26;20008;-69
2024/04/19 05:26:56;;;;;;;8.73;6.28;;;;;;;;;;5472901;26;20019;-67
2024/04/19 05:29:24;;;;;;;8.55;6.10;;;;;;;;;;5448955;26;20325;-69
2024/04/19 05:31:51;;;;;;;7.72;5.63;;;;;;;;;;5449402;26;20002;-69
2024/04/19 05:34:16;;;;;;;9.85;6.72;;;154.40;2252.80;;;;;;5448900;26;20003;-69
2024/04/19 05:36:42;;;;;;;8.35;5.50;;;154.50;2252.80;;;;;;5449678;26;20318;-69
2024/04/19 05:39:08;;;;;;;8.25;6.00;;;154.50;2252.80;;;;;;5448238;26;19995;-68
2024/04/19 05:41:33;;;;;;;9.18;6.03;;;179.20;2252.80;;;;;;5447813;26;20014;-68
2024/04/19 05:43:59;;;;;;;9.68;6.65;;;154.30;2252.80;;;;;;5445585;26;20018;-68
2024/04/19 05:46:25;;;;;;;8.93;6.20;;;179.30;2252.80;;;;;;5412540;26;20006;-68
2024/04/19 05:48:51;;;;;;;8.68;6.15;;;179.20;2252.80;;;;;;5446473;26;20054;-67
2024/04/19 05:51:16;;;;;;;10.02;5.97;;;179.30;2252.80;;;;;;5449741;26;20010;-68
2024/04/19 05:53:42;;;;;;;8.80;5.68;;;179.40;2252.80;;;;;;5448800;26;19999;-69
2024/04/19 05:56:08;;;;;;;6.97;5.38;;;179.50;2252.80;;;;;;5450130;26;20082;-69
2024/04/19 05:58:33;;;;;;;9.95;5.72;;;179.60;2252.80;;;;;;5450254;26;20003;-69
2024/04/19 06:00:59;;;;;;;8.60;5.43;;;179.70;2252.80;;;;;;5449965;26;20014;-69
2024/04/19 06:03:25;;;;;;;8.32;5.45;;;179.90;2252.80;;;;;;5446062;26;20442;-70
2024/04/19 06:05:50;;;;;;;9.52;5.07;;;179.90;2252.80;;;;;;5430174;26;20467;-70
2024/04/19 06:08:16;;;;;;;7.55;4.88;;;180.00;2252.80;;;;;;5440133;26;19995;-69
2024/04/19 06:10:42;;;;;;;10.88;4.70;;;180.00;2252.80;;;;;;5445856;26;20009;-70
2024/04/19 06:13:08;;;;;;;7.88;5.00;;;180.10;2252.80;;;;;;5459244;26;20015;-71
2024/04/19 06:15:33;;;;;;;7.75;4.82;;;204.80;2252.80;;;;;;5431956;26;19999;-71
2024/04/19 06:17:59;;;;;;;7.55;4.60;;;204.80;2252.80;;;;;;5438454;26;20307;-69
2024/04/19 06:20:25;;;;;;;6.82;4.53;;;;;;;;;;5447064;26;20021;-71
2024/04/19 06:22:51;;;;;;;7.32;4.50;;;205.10;2252.80;;;;;;5491538;26;19994;-71
2024/04/19 06:25:18;;;;;;;9.68;5.40;;;;;;;;;;5467563;26;20366;-72
2024/04/19 06:27:44;;;;;;;7.75;5.20;;;205.70;2252.80;;;;;;5422442;26;20010;-71
2024/04/19 06:30:10;;;;;;;6.63;4.47;;;205.60;2252.80;;;;;;5454992;26;20003;-70
2024/04/19 06:32:35;;;;;;;6.97;4.90;;;205.50;2252.80;;;;;;5480687;26;20017;-72
2024/04/19 06:35:01;;;;;;;8.82;4.68;;;205.60;2252.80;;;;;;5490750;26;20002;-70
2024/04/19 06:37:27;;;;;;;7.55;5.20;;;205.60;2252.80;;;;;;5439263;26;20000;-71
2024/04/19 06:39:53;;;;;;;6.70;4.65;;;230.50;2252.80;;;;;;5459085;26;19990;-70
2024/04/19 06:42:20;;;;;;;9.68;5.13;;;230.60;2252.80;;;;;;5468179;26;20018;-72
2024/04/19 06:44:46;;;;;;;9.73;6.03;;;230.70;2252.80;;;;;;5475836;26;20002;-71
2024/04/19 06:47:11;;;;;;;8.20;5.05;;;230.80;2252.80;;;;;;5453998;26;20010;-71
2024/04/19 06:49:37;;;;;;;6.65;4.65;;;;;;;;;;5420116;26;20000;-72
2024/04/19 06:52:03;;;;;;;6.22;4.70;;;;;;;;;;5425662;26;20008;-71
2024/04/19 06:54:29;;;;;;;10.93;4.88;;;;;;;;;;5472366;26;20074;-72
2024/04/19 06:56:55;;;;;;;9.55;4.50;;;;;;;;;;5490709;26;20010;-71
2024/04/19 06:59:21;;;;;;;7.15;4.80;;;;;;;;;;5460482;26;20075;-71
2024/04/19 07:01:47;;;;;;;8.32;5.00;;;;;;;;;;5455002;26;20006;-71
2024/04/19 07:04:13;;;;;;;7.53;4.60;;;;;;;;;;5453999;26;20002;-71
2024/04/19 07:06:40;;;;;;;7.03;4.45;;;;;;;;;;5429653;26;20013;-70
2024/04/19 07:09:06;;;;;;;6.80;4.60;;;;;;;;;;5436343;26;20007;-72
2024/04/19 07:11:33;;;;;;;6.97;4.32;;;281.70;2278.40;;;;;;5438670;26;20501;-70
2024/04/19 07:13:59;;;;;;;6.63;4.25;;;256.90;2252.80;;;;;;5454150;26;20026;-71
2024/04/19 07:16:25;;;;;;;6.75;4.47;;;256.90;2252.80;;;;;;5454829;26;20341;-71
2024/04/19 07:18:51;;;;;;;5.60;4.32;;;281.70;2278.40;;;;;;5454066;26;20593;-71
2024/04/19 07:21:18;;;;;;;6.80;4.55;;;;;;;;;;5453860;26;19998;-70
2024/04/19 07:23:44;;;;;;;7.13;4.15;;;282.10;2278.40;;;;;;5453589;26;19999;-71
2024/04/19 07:26:10;;;;;;;6.03;4.40;;;;;;;;;;5454982;26;20439;-70
2024/04/19 07:28:36;;;;;;;5.60;4.03;;;;;;;;;;5454348;26;20001;-71
2024/04/19 07:31:02;;;;;;;5.93;4.68;;;;;;;;;;5454030;26;19991;-73
2024/04/19 07:33:28;;;;;;;8.10;4.32;;;;;;;;;;5453584;26;20005;-69
2024/04/19 07:35:54;;;;;;;6.20;4.30;;;;;;;;;;5452764;26;20010;-69
2024/04/19 07:38:19;;;;;;;7.53;4.90;;;307.40;2304.00;;;;;;5452933;26;20007;-70
2024/04/19 07:40:45;;;;;;;8.80;6.55;;;307.70;2304.00;;;;;;5452719;26;20426;-69
2024/04/19 07:43:12;;;;;;;7.10;5.57;;;;;;;;;;5452348;26;19995;-69
2024/04/19 07:45:38;;;;;;;6.68;5.30;;;;;;;;;;5452222;26;20437;-69
2024/04/19 07:48:04;;;;;;;7.97;4.95;;;;;;;;;;5441389;26;20396;-69
2024/04/19 07:50:30;;;;;;;8.88;4.55;;;332.80;2329.60;;;;;;5423051;26;20430;-69
2024/04/19 07:52:55;;;;;;;6.65;4.10;;;332.90;2304.00;;;;;;5459724;26;20071;-69
2024/04/19 07:55:21;;;;;;;7.35;4.40;;;333.10;2304.00;;;;;;5489907;26;19994;-72
2024/04/19 07:57:48;;;;;;;5.65;4.00;;;333.50;2227.20;;;;;;5466462;26;20473;-72
2024/04/19 08:00:17;;;;;;;7.28;4.10;;;333.60;2150.40;;;;;;5419714;26;20015;-72
2024/04/19 08:02:44;;;;;;;5.90;3.80;;;358.40;2124.80;;;;;;5449901;26;20452;-71
2024/04/19 08:05:10;;;;;;;3.90;2.90;;;;;;;;;;5445462;26;20018;-71
2024/04/19 08:07:36;;;;;;;6.03;3.50;;;358.70;1996.80;;;;;;5416880;26;20000;-71
2024/04/19 08:10:03;;;;;;;5.30;3.10;;;358.40;1971.20;;;;;;5461187;26;20041;-71
2024/04/19 08:12:29;;;;;;;5.70;3.63;;;333.60;2022.40;;;;;;5456352;26;20003;-71
2024/04/19 08:14:54;;;;;;;4.95;3.10;;;358.50;1971.20;;;;;;5417243;26;20000;-71
2024/04/19 08:17:20;;;;;;;4.78;3.03;;;358.80;1894.40;;;;;;5417628;26;20325;-71
2024/04/19 08:19:46;;;;;;;5.47;3.25;;;358.90;1817.60;;;;;;5417304;26;20463;-71
2024/04/19 08:22:12;;;;;;;6.65;4.20;;;;;;;;;;5422186;26;20010;-72
2024/04/19 08:24:38;;;;;;;4.15;2.80;;;;;;;;;;5437128;26;19998;-72
2024/04/19 08:27:04;;;;;;;9.18;3.40;;;;;;;;;;5453723;26;20346;-71
2024/04/19 08:29:32;;;;;;;26.42;5.55;;;;;;;;;;5453433;26;20005;-72
2024/04/19 08:31:58;;;;;;;5.72;3.45;;;;;;;;;;5452499;26;20002;-73
2024/04/19 08:34:24;;;;;;;7.50;3.40;;;;;;;;;;5418277;26;20012;-72
2024/04/19 08:36:50;;;;;;;4.47;3.30;;;;;;;;;;5436095;26;19998;-71
2024/04/19 08:39:16;;;;;;;3.50;2.60;;;;;;;;;;5487447;26;20017;-71
2024/04/19 08:41:42;;;;;;;4.28;2.20;;;;;;;;;;5450750;26;20018;-71
2024/04/19 08:44:08;;;;;;;5.30;2.50;;;;;;;;;;5450154;26;20026;-71
2024/04/19 08:46:36;;;;;;;5.57;2.30;;;;;;;;;;5473014;26;19994;-71
2024/04/19 08:49:03;;;;;;;3.78;2.28;;;;;;;;;;5464669;26;20084;-72
2024/04/19 08:51:33;;;;;;;9.35;2.78;;;;;;;;;;5430499;26;20012;-71
2024/04/19 08:53:59;;;;;;;7.70;3.22;;;;;;;;;;5482031;26;20066;-72
2024/04/19 08:56:26;;;;;;;4.35;2.58;;;;;;;;;;5480583;26;20003;-72
2024/04/19 08:58:56;;;;;;;5.45;2.47;;;;;;;;;;5453685;26;20006;-73
2024/04/19 09:01:23;;;;;;;29.08;4.32;;;;;;;;;;5450065;26;20422;-72
2024/04/19 09:03:49;;;;;;;7.75;2.40;;;;;;;;;;5425166;26;20418;-72
2024/04/19 09:06:16;;;;;;;2.97;1.70;;;;;;;;;;5448290;26;20003;-70
2024/04/19 09:08:43;;;;;;;3.88;2.00;;;;;;;;;;5449645;26;20030;-72
2024/04/19 09:11:13;;;;;;;3.85;2.28;;;;;;;;;;5453561;26;19998;-71
2024/04/19 09:13:39;;;;;;;4.53;2.30;;;;;;;;;;5453479;26;20019;-71
2024/04/19 09:16:05;;;;;;;3.72;2.33;;;;;;;;;;5435261;26;20002;-72
2024/04/19 09:18:31;;;;;;;7.68;2.65;;;;;;;;;;5416906;26;20006;-71
2024/04/19 09:20:57;;;;;;;26.38;4.05;;;;;;;;;;5433389;26;20434;-72
2024/04/19 09:23:24;;;;;;;4.22;2.38;;;;;;;;;;5449772;26;20003;-72
2024/04/19 09:25:54;;;;;;;3.92;2.20;;;;;;;;;;5421299;26;20004;-73
2024/04/19 09:28:22;;;;;;;4.00;2.40;;;;;;;;;;5416819;26;20010;-72
2024/04/19 09:30:52;;;;;;;4.63;2.50;;;;;;;;;;5416842;26;19995;-72
2024/04/19 09:33:18;;;;;;;3.50;2.30;;;435.20;1996.80;;;;;;5417171;26;20002;-72
2024/04/19 09:35:44;;;;;;;2.70;2.08;;;410.20;1484.80;;;;;;5417108;26;20061;-71
2024/04/19 09:38:10;;;;;;;2.65;2.00;;;410.40;1484.80;;;;;;5416763;26;19992;-71
2024/04/19 09:40:36;;;;;;;3.60;2.20;;;435.40;1433.60;;;;;;5416664;26;19999;-72
2024/04/19 09:43:06;;;;;;;3.70;2.03;;;435.60;1433.60;;;;;;5443352;26;20013;-72
2024/04/19 09:45:43;;;;;;;2.80;2.20;;;436.10;1408.00;;;;;;5435005;26;20076;-71
2024/04/19 09:48:15;;;;;;;4.40;2.10;;;436.00;1382.40;;;;;;5424357;26;20002;-72
2024/04/19 09:50:47;;;;;;;3.05;2.10;;;435.70;1382.40;;;;;;5435781;26;20096;-72
2024/04/19 09:53:31;;;;;;;3.00;2.20;;;410.50;1408.00;;;;;;5426036;26;20031;-71
2024/04/19 09:56:43;;;;;;;3.47;1.98;;;410.40;1408.00;;;;;;5421252;26;20003;-71
2024/04/19 09:59:11;;;;;;;4.00;2.08;;;435.20;1433.60;;;;;;5295082;26;20015;-73
2024/04/19 10:01:37;;;;;;;3.50;1.65;;;435.80;1408.00;;;;;;5293503;27;20014;-71
2024/04/19 10:04:08;;;;;;;3.25;2.22;;;436.00;1356.80;;;;;;5291458;27;20627;-70
2024/04/19 10:06:38;;;;;;;3.28;2.17;;;461.00;1382.40;;;;;;5308012;27;20399;-72
2024/04/19 10:09:14;;;;;;;101.95;8.90;;;461.10;1382.40;;;;;;5308120;26;20012;-73
2024/04/19 10:11:47;;;;;;;25.83;4.30;;;461.10;1382.40;;;;;;5323064;26;20000;-71
2024/04/19 10:14:16;;;;;;;50.35;6.47;;;461.30;1356.80;;;;;;5342480;26;19997;-71
2024/04/19 10:16:42;;;;;;;3.67;2.30;;;461.10;1382.40;;;;;;5310867;26;20001;-71
2024/04/19 10:19:11;;;;;;;70.57;8.52;;;460.90;1382.40;;;;;;5308223;27;20002;-72
2024/04/19 10:21:39;;;;;;;4.15;2.50;;;461.10;1408.00;;;;;;5306785;27;20006;-72
2024/04/19 10:24:18;;;;;;;10.65;2.95;;;460.90;1382.40;;;;;;5300312;26;20431;-72
2024/04/19 10:26:59;;;;;;;3.15;1.92;;;461.00;1408.00;;;;;;5303839;26;20005;-72
2024/04/19 10:29:28;;;;;;;3.40;1.90;;;460.80;1382.40;;;;;;5303405;26;20006;-72
2024/04/19 10:31:55;;;;;;;3.05;1.85;;;461.00;1356.80;;;;;;5308221;27;20059;-71
2024/04/19 10:34:23;;;;;;;3.50;1.98;;;461.40;1331.20;;;;;;5308078;27;20573;-72
2024/04/19 10:36:51;;;;;;;2.78;1.80;;;461.30;1331.20;;;;;;5407681;26;20170;-72
2024/04/19 10:39:21;;;;;;;3.55;1.80;;;486.40;1305.60;;;;;;5426064;26;20003;-71
2024/04/19 10:41:49;;;;;;;4.47;2.25;;;486.90;1305.60;;;;;;5441016;26;20007;-71
2024/04/19 10:44:15;;;;;;;5.38;1.90;;;486.70;1280.00;;;;;;5415675;26;20343;-72
2024/04/19 10:46:44;;;;;;;4.95;1.88;;;486.50;1280.00;;;;;;5415534;26;19996;-71
2024/04/19 10:49:11;;;;;;;2.63;1.77;;;486.60;1280.00;;;;;;5415327;26;20440;-71
2024/04/19 10:51:37;;;;;;;3.42;1.83;;;461.50;1280.00;;;;;;5417676;26;20028;-72
2024/04/19 10:54:07;;;;;;;3.13;1.88;;;461.00;1305.60;;;;;;5442860;26;20018;-72
2024/04/19 10:56:35;;;;;;;3.30;1.40;;;461.40;1305.60;;;;;;5440678;26;20016;-72
2024/04/19 10:59:04;;;;;;;2.40;1.70;;;461.60;1280.00;;;;;;5422946;26;20014;-71
2024/04/19 11:01:30;;;;;;;3.13;1.90;;;486.50;1254.40;;;;;;5419218;26;20011;-72
2024/04/19 11:03:56;;;;;;;3.55;1.65;;;486.40;1228.80;;;;;;5419184;26;20331;-72
2024/04/19 11:06:23;;;;;;;1.88;1.50;;;486.80;1228.80;;;;;;5419299;26;20076;-71
2024/04/19 11:08:49;;;;;;;2.47;1.67;;;487.10;1254.40;;;;;;5419158;26;20072;-72
2024/04/19 11:11:15;;;;;;;3.92;1.83;;;487.30;1536.00;;;;;;5419122;26;20442;-70
2024/04/19 11:13:43;;;;;;;4.05;1.45;;;486.90;1254.40;;;;;;5419256;26;19995;-71
2024/04/19 11:16:09;;;;;;;4.00;1.40;;;;;;;;;;5418946;26;20511;-71
2024/04/19 11:18:36;;;;;;;1.88;1.40;;;512.40;1228.80;;;;;;5419037;26;19995;-71
2024/04/19 11:21:02;;;;;;;3.40;1.83;;;512.00;1203.20;;;;;;5418738;26;20571;-72
2024/04/19 11:23:31;;;;;;;2.20;1.30;;;486.90;1228.80;;;;;;5418918;26;20447;-70
2024/04/19 11:25:57;;;;;;;2.72;1.60;;;486.90;1254.40;;;;;;5420554;26;20032;-71
2024/04/19 11:28:23;;;;;;;2.58;1.63;;;486.50;1228.80;;;;;;5386304;26;20000;-72
2024/04/19 11:30:49;;;;;;;8.95;1.98;;;461.00;1254.40;;;;;;5418004;26;20035;-71
2024/04/19 11:33:15;;;;;;;7.35;2.00;;;461.20;1280.00;;;;;;5395619;26;20427;-71
2024/04/19 11:35:41;;;;;;;3.00;1.80;;;486.90;1561.60;;;;;;5416606;26;20449;-71
2024/04/19 11:38:12;;;;;;;3.40;2.05;;;486.60;1228.80;;;;;;5430289;26;19999;-71
2024/04/19 11:40:38;;;;;;;6.38;1.40;;;486.70;1254.40;;;;;;5470366;26;20444;-69
2024/04/19 11:43:04;;;;;;;2.40;1.27;;;512.50;1152.00;;;;;;5456850;26;19995;-71
2024/04/19 11:45:30;;;;;;;3.28;1.35;;;;;;;;;;5451532;26;20009;-71
2024/04/19 11:47:58;;;;;;;2.85;1.42;;;537.60;1152.00;;;;;;5451920;26;19999;-71
2024/04/19 11:50:25;;;;;;;2.92;1.20;;;512.60;1126.40;;;;;;5452379;26;20038;-71
2024/04/19 11:52:51;;;;;;;2.95;1.20;;;512.40;1152.00;;;;;;5419408;26;19995;-70
2024/04/19 11:55:18;;;;;;;2.65;1.20;;;512.80;1100.80;;;;;;5439030;26;20002;-69
2024/04/19 11:57:44;;;;;;;2.53;1.20;;;537.90;1126.40;;;;;;5488820;26;19998;-70
2024/04/19 12:00:10;;;;;;;4.63;1.40;;;538.40;1100.80;;;;;;5452198;26;20035;-70
2024/04/19 12:02:36;;;;;;;2.17;1.20;;;;;;;;;;5450478;26;20010;-72
2024/04/19 12:05:02;;;;;;;3.67;1.60;;;563.50;1075.20;;;;;;5452100;26;20726;-72
2024/04/19 12:07:28;;;;;;;2.35;1.60;;;538.20;1024.00;;;;;;5453360;26;20009;-71
2024/04/19 12:09:54;;;;;;;3.60;1.65;;;512.40;1100.80;;;;;;5450800;26;20010;-72
2024/04/19 12:12:21;;;;;;;3.40;1.88;;;512.50;1100.80;;;;;;5453055;26;20002;-72
2024/04/19 12:14:49;;;;;;;2.47;1.80;;;512.00;1126.40;;;;;;5447969;26;19999;-72
2024/04/19 12:17:15;;;;;;;2.05;1.30;;;487.00;1177.60;;;;;;5449983;26;20088;-72
2024/04/19 12:19:41;;;;;;;2.20;1.50;;;486.80;1126.40;;;;;;5451217;26;19999;-72
2024/04/19 12:22:07;;;;;;;2.20;1.30;;;486.60;1126.40;;;;;;5450832;26;20002;-72
2024/04/19 12:24:37;;;;;;;1.73;1.20;;;486.60;1152.00;;;;;;5451277;26;20378;-71
2024/04/19 12:27:04;;;;;;;3.13;1.20;;;461.50;1152.00;;;;;;5451537;26;19995;-72
2024/04/19 12:29:30;;;;;;;3.90;1.15;;;486.70;1126.40;;;;;;5451986;26;20002;-71
2024/04/19 12:31:57;;;;;;;2.22;1.30;;;486.80;1126.40;;;;;;5459547;26;20405;-72
2024/04/19 12:34:22;;;;;;;1.63;1.23;;;512.00;1126.40;;;;;;5461778;26;20027;-71
2024/04/19 12:36:48;;;;;;;2.47;1.00;;;512.50;1100.80;;;;;;5451650;26;20070;-71
2024/04/19 12:39:14;;;;;;;1.95;1.23;;;537.60;1126.40;;;;;;5451313;26;20075;-71
2024/04/19 12:41:43;;;;;;;2.97;1.10;;;512.80;1075.20;;;;;;5451497;26;19999;-68
2024/04/19 12:44:10;;;;;;;4.10;1.60;;;512.60;1075.20;;;;;;5451895;26;19995;-69
2024/04/19 12:46:36;;;;;;;1.83;1.20;;;512.50;1075.20;;;;;;5451695;26;20002;-71